Ana Sayfa
METAR-TAF:

METAR-TAF

Havaalanları :

Darüsselam, Tanzanya

Enlem: 06-52S, Boylam: 039-12E, yükseklik: 55 m

Güncel hava durumu gözlemi

Rapor saat 05:00 UTC de 1 saat ve 26 dakika önce yapıldı.
Rüzgar kuzeydan 10 kt
Sıcaklık 27°C
Nem 79%
Basınç 1012 hPa
Görüş mesafesi 10 km veya daha fazla
1600 ft yükseklikte az bulutlu
7000 ft yükseklikte parçalı bulutlu

METAR: HTDA 210500Z 36010KT 9999 FEW016 SCT070 27/23 Q1012 NOSIG

Saat: 09:26 (06:26 UTC)

Tahmin

Rapor saat 05:00 UTC de 1 saat ve 26 dakika önce yapıldı.
Ayın 21'si saat 06 UTC'den ayın 22'si saat 12 UTC'ye kadar geçerli Tahmin
Rüzgar kuzeydan 10 kt
Görüş mesafesi 10 km veya daha fazla
1900 ft yükseklikte az bulutlu
Dönüşüyor
ayın 21'si saat 09 UTC'den ayın 21'si saat 12 UTC'ye kadar
2100 ft yükseklikte parçalı çok bulutlu

TAF: HTDA 210500Z 2106/2212 36010KT 9999 FEW019 BECMG 2109/2112 BKN021

4.000'den fazla havaalanı için hava durumu gözlemleri ve tahminleri (METAR ve TAF raporları).

Kullanılabilir istasyonlar harita üzerinde sarı ve kırmızı noktalarla gösterilir.

İstasyonun adını görmek için fareyi noktanın üzerinde gezdirin.

Sonrasında hava gözlem ve tahminlerini görmek için tıklayın.

Haritayı değiştirmek için: yaklaştırmak için siyah artı işaretli yeşil düğmeye ve uzaklaştırmak için de eksi işaretli düğmeye hızla tıklayın; bitişik haritalar için yeşil okları kullanın.


METAR-TAF: